createdAt,value
2022-11-24T00:00:08.436Z,76.12
2022-11-24T00:01:07.906Z,75.86
2022-11-24T00:02:04.650Z,75.35
2022-11-24T00:03:01.582Z,75.16
2022-11-24T00:04:00.985Z,75.07
2022-11-24T00:04:57.590Z,75.38
2022-11-24T00:05:54.198Z,76.11
2022-11-24T00:06:50.835Z,77.35
2022-11-24T00:07:47.414Z,79.03
2022-11-24T00:08:46.243Z,80.23
2022-11-24T00:09:42.807Z,80.75
2022-11-24T00:10:39.421Z,81.13
2022-11-24T00:11:36.743Z,81.26
2022-11-24T00:12:33.443Z,81.20
2022-11-24T00:13:30.153Z,81.87
2022-11-24T00:14:27.169Z,82.59
2022-11-24T00:15:23.814Z,82.72
2022-11-24T00:16:22.542Z,82.51
2022-11-24T00:17:19.204Z,82.78
2022-11-24T00:18:15.784Z,83.37
2022-11-24T00:19:17.053Z,84.07
2022-11-24T00:20:17.061Z,84.22
2022-11-24T00:21:15.528Z,84.46
2022-11-24T00:22:12.091Z,84.33
2022-11-24T00:23:08.653Z,83.70
2022-11-24T00:24:05.447Z,82.93
2022-11-24T00:25:02.013Z,82.53
2022-11-24T00:26:10.254Z,82.41
2022-11-24T00:27:06.833Z,82.67
2022-11-24T00:28:03.410Z,82.64
2022-11-24T00:29:02.995Z,82.47
2022-11-24T00:29:59.703Z,82.55
2022-11-24T00:30:56.342Z,83.08
2022-11-24T00:31:52.947Z,83.66
2022-11-24T00:32:49.473Z,83.70
2022-11-24T00:33:47.637Z,83.97
2022-11-24T00:34:44.226Z,84.20
2022-11-24T00:35:40.798Z,84.89
2022-11-24T00:36:38.453Z,84.99
2022-11-24T00:37:35.164Z,83.76
2022-11-24T00:38:31.738Z,82.28
2022-11-24T00:39:28.291Z,81.73
2022-11-24T00:40:24.826Z,81.33
2022-11-24T00:41:22.176Z,82.26
2022-11-24T00:42:18.806Z,82.57
2022-11-24T00:43:15.379Z,82.00
2022-11-24T00:44:12.070Z,80.95
2022-11-24T00:45:13.772Z,82.14
2022-11-24T00:46:11.656Z,82.79
2022-11-24T00:47:08.452Z,83.14
2022-11-24T00:48:05.248Z,83.69
2022-11-24T00:49:01.948Z,84.45
2022-11-24T00:49:58.545Z,84.47
2022-11-24T00:51:03.155Z,84.58
2022-11-24T00:51:59.769Z,84.54
2022-11-24T00:52:56.364Z,83.96
2022-11-24T00:53:53.399Z,83.40
2022-11-24T00:54:50.106Z,82.96
2022-11-24T00:55:50.181Z,82.33
2022-11-24T00:56:47.551Z,81.81
2022-11-24T00:57:44.185Z,82.36
2022-11-24T00:58:40.866Z,83.29
2022-11-24T00:59:37.471Z,83.83
2022-11-24T01:00:34.055Z,83.48
2022-11-24T01:01:33.731Z,82.61
2022-11-24T01:02:30.418Z,83.35
2022-11-24T01:03:27.077Z,84.27
2022-11-24T01:04:23.746Z,84.24
2022-11-24T01:05:20.803Z,84.81
2022-11-24T01:06:19.950Z,85.22
2022-11-24T01:07:16.656Z,85.80
2022-11-24T01:08:13.320Z,85.99
2022-11-24T01:09:11.400Z,86.24
2022-11-24T01:10:08.576Z,86.21
2022-11-24T01:11:20.251Z,86.19
2022-11-24T01:12:16.829Z,85.97
2022-11-24T01:13:13.470Z,85.61
2022-11-24T01:14:10.015Z,85.48
2022-11-24T01:15:06.977Z,85.30
2022-11-24T01:16:04.025Z,84.76
2022-11-24T01:17:00.747Z,84.73
2022-11-24T01:17:57.665Z,84.63
2022-11-24T01:18:54.521Z,84.87
2022-11-24T01:19:51.334Z,85.07
2022-11-24T01:20:47.874Z,84.38
2022-11-24T01:21:44.532Z,83.46
2022-11-24T01:22:44.564Z,82.67
2022-11-24T01:23:41.250Z,82.31
2022-11-24T01:24:37.882Z,82.01
2022-11-24T01:25:34.423Z,81.70
2022-11-24T01:26:30.952Z,81.69
2022-11-24T01:27:27.491Z,81.82
2022-11-24T01:28:24.094Z,82.04
2022-11-24T01:29:20.640Z,81.08
2022-11-24T01:30:17.562Z,81.02
2022-11-24T01:31:14.316Z,81.18
2022-11-24T01:32:10.978Z,81.43
2022-11-24T01:33:07.634Z,82.06
2022-11-24T01:34:04.197Z,82.64
2022-11-24T01:35:00.816Z,83.26
2022-11-24T01:35:58.724Z,84.20
2022-11-24T01:36:55.321Z,84.62
2022-11-24T01:37:51.919Z,84.59
2022-11-24T01:38:48.813Z,84.46
2022-11-24T01:39:45.422Z,84.89
2022-11-24T01:40:41.955Z,84.93
2022-11-24T01:41:38.587Z,84.92
2022-11-24T01:42:48.928Z,85.41
2022-11-24T01:43:46.515Z,85.25
2022-11-24T01:44:43.408Z,85.25
2022-11-24T01:45:41.175Z,85.45
2022-11-24T01:46:43.804Z,86.08
2022-11-24T01:47:43.775Z,86.10
2022-11-24T01:48:45.265Z,86.09
2022-11-24T01:49:46.819Z,85.89
2022-11-24T01:50:44.178Z,86.01
2022-11-24T01:51:45.806Z,86.22
2022-11-24T01:52:49.849Z,86.09
2022-11-24T01:53:52.850Z,86.58
2022-11-24T01:54:53.520Z,87.03
2022-11-24T01:55:51.943Z,86.83
2022-11-24T01:56:56.879Z,86.27
2022-11-24T01:58:24.553Z,85.74
2022-11-24T01:59:22.034Z,86.01
2022-11-24T02:00:18.919Z,86.05
2022-11-24T02:01:15.558Z,85.92
2022-11-24T02:02:12.905Z,86.31
2022-11-24T02:03:10.848Z,86.41
2022-11-24T02:04:12.315Z,86.48
2022-11-24T02:05:25.907Z,86.53
2022-11-24T02:06:31.503Z,85.94
2022-11-24T02:07:28.115Z,85.75
2022-11-24T02:08:51.099Z,85.02
2022-11-24T02:09:55.587Z,84.32
2022-11-24T02:10:52.290Z,84.25
2022-11-24T02:11:48.963Z,83.98
2022-11-24T02:12:48.901Z,84.18
2022-11-24T02:13:46.473Z,84.39
2022-11-24T02:14:44.771Z,84.50
2022-11-24T02:15:41.975Z,84.69
2022-11-24T02:16:41.635Z,83.95
2022-11-24T02:17:38.205Z,83.34
2022-11-24T02:18:34.832Z,83.18
2022-11-24T02:19:40.088Z,83.53
2022-11-24T02:20:36.747Z,82.40
2022-11-24T02:21:33.331Z,82.79
2022-11-24T02:22:46.431Z,84.07
2022-11-24T02:24:03.161Z,84.77
2022-11-24T02:25:05.997Z,84.52
2022-11-24T02:26:18.896Z,84.60
2022-11-24T02:27:15.699Z,84.61
2022-11-24T02:28:19.503Z,84.52
2022-11-24T02:29:16.564Z,84.55
2022-11-24T02:30:13.501Z,85.08
2022-11-24T02:31:10.677Z,85.07
2022-11-24T02:32:09.337Z,84.94
2022-11-24T02:33:05.930Z,85.25
2022-11-24T02:34:02.543Z,85.30
2022-11-24T02:35:04.696Z,85.19
2022-11-24T02:36:01.447Z,85.77
2022-11-24T02:36:58.008Z,86.05
2022-11-24T02:37:54.588Z,85.48
2022-11-24T02:38:51.230Z,84.91
2022-11-24T02:39:47.801Z,84.66
2022-11-24T02:40:47.988Z,84.50
2022-11-24T02:41:54.940Z,83.79
2022-11-24T02:43:07.957Z,83.24
2022-11-24T02:44:04.794Z,83.88
2022-11-24T02:45:01.811Z,84.11
2022-11-24T02:45:58.452Z,84.27
2022-11-24T02:47:09.505Z,83.97
2022-11-24T02:48:06.715Z,84.01
2022-11-24T02:49:03.288Z,83.42
2022-11-24T02:49:59.873Z,82.96
2022-11-24T02:50:56.450Z,83.18
2022-11-24T02:51:53.003Z,83.97
2022-11-24T02:52:49.572Z,83.73
2022-11-24T02:53:46.181Z,82.65
2022-11-24T02:54:42.770Z,82.21
2022-11-24T02:55:39.337Z,82.36
2022-11-24T02:56:36.061Z,82.70
2022-11-24T02:57:32.637Z,83.38
2022-11-24T02:58:29.317Z,83.52
2022-11-24T02:59:26.042Z,83.74
2022-11-24T03:00:22.931Z,83.41
2022-11-24T03:01:19.609Z,82.99
2022-11-24T03:02:16.341Z,83.18
2022-11-24T03:03:13.055Z,83.33
2022-11-24T03:04:09.685Z,83.31
2022-11-24T03:05:06.265Z,83.61
2022-11-24T03:06:02.883Z,84.23
2022-11-24T03:06:59.492Z,83.69
2022-11-24T03:07:56.096Z,83.67
2022-11-24T03:08:52.635Z,82.96
2022-11-24T03:09:49.229Z,81.99
2022-11-24T03:10:45.971Z,82.38
2022-11-24T03:11:42.594Z,83.73
2022-11-24T03:12:39.191Z,84.05
2022-11-24T03:13:35.731Z,84.87
2022-11-24T03:14:32.671Z,85.11
2022-11-24T03:15:29.467Z,84.08
2022-11-24T03:16:26.105Z,84.46
2022-11-24T03:17:22.761Z,84.56
2022-11-24T03:18:19.420Z,83.09
2022-11-24T03:19:15.968Z,81.42
2022-11-24T03:20:12.714Z,80.33
2022-11-24T03:21:09.783Z,81.63
2022-11-24T03:22:06.326Z,81.60
2022-11-24T03:23:03.023Z,82.23
2022-11-24T03:24:00.264Z,81.39
2022-11-24T03:24:56.835Z,81.65
2022-11-24T03:25:53.469Z,81.42
2022-11-24T03:26:50.032Z,81.53
2022-11-24T03:27:47.115Z,81.25
2022-11-24T03:28:44.191Z,81.47
2022-11-24T03:29:40.766Z,81.27
2022-11-24T03:30:37.357Z,81.33
2022-11-24T03:31:34.066Z,80.94
2022-11-24T03:32:30.813Z,80.72
2022-11-24T03:33:27.336Z,80.95
2022-11-24T03:34:24.247Z,81.00
2022-11-24T03:35:22.108Z,82.36
2022-11-24T03:36:18.787Z,82.78
2022-11-24T03:37:15.916Z,82.98
2022-11-24T03:38:12.546Z,83.98
2022-11-24T03:39:09.743Z,84.20
2022-11-24T03:40:06.911Z,84.63
2022-11-24T03:41:03.634Z,85.01
2022-11-24T03:42:00.252Z,85.19
2022-11-24T03:42:57.130Z,84.85
2022-11-24T03:43:53.693Z,84.78
2022-11-24T03:44:50.240Z,84.22
2022-11-24T03:45:48.126Z,83.80
2022-11-24T03:46:45.190Z,83.66
2022-11-24T03:47:42.200Z,84.24
2022-11-24T03:48:39.029Z,83.92
2022-11-24T03:49:36.500Z,83.41
2022-11-24T03:50:33.217Z,83.09
2022-11-24T03:51:29.761Z,82.34
2022-11-24T03:52:26.701Z,82.66
2022-11-24T03:53:24.837Z,82.99
2022-11-24T03:54:22.047Z,83.53
2022-11-24T03:55:18.711Z,83.76
2022-11-24T03:56:15.280Z,84.19
2022-11-24T03:57:11.839Z,84.41
2022-11-24T03:58:08.425Z,84.86
2022-11-24T03:59:05.167Z,85.05
2022-11-24T04:00:01.735Z,85.29
2022-11-24T04:00:58.995Z,85.94
2022-11-24T04:01:55.617Z,85.99
2022-11-24T04:02:52.264Z,85.91
2022-11-24T04:03:48.870Z,85.92
2022-11-24T04:04:50.633Z,86.26
2022-11-24T04:05:47.619Z,86.40
2022-11-24T04:06:44.138Z,86.86
2022-11-24T04:07:40.799Z,87.43
2022-11-24T04:08:37.392Z,87.95
2022-11-24T04:09:33.959Z,87.62
2022-11-24T04:10:31.776Z,87.03
2022-11-24T04:11:46.695Z,86.79
2022-11-24T04:12:45.865Z,86.03
2022-11-24T04:13:42.404Z,85.90
2022-11-24T04:14:38.960Z,86.07
2022-11-24T04:15:35.720Z,85.92
2022-11-24T04:16:32.356Z,85.59
2022-11-24T04:17:29.025Z,85.41
2022-11-24T04:18:25.668Z,85.62
2022-11-24T04:19:22.400Z,85.83
2022-11-24T04:20:18.951Z,85.67
2022-11-24T04:21:15.509Z,85.25
2022-11-24T04:22:12.156Z,84.32
2022-11-24T04:23:09.964Z,83.55
2022-11-24T04:24:06.889Z,83.01
2022-11-24T04:25:04.744Z,83.09
2022-11-24T04:26:01.328Z,82.86
2022-11-24T04:26:57.862Z,83.86
2022-11-24T04:27:55.730Z,84.60
2022-11-24T04:28:52.302Z,85.14
2022-11-24T04:29:48.880Z,84.88
2022-11-24T04:30:45.516Z,84.60
2022-11-24T04:31:42.194Z,85.01
2022-11-24T04:32:38.846Z,85.40
2022-11-24T04:33:35.411Z,86.15
2022-11-24T04:34:32.461Z,86.51
2022-11-24T04:35:29.187Z,87.05
2022-11-24T04:36:25.870Z,86.98
2022-11-24T04:37:22.580Z,86.95
2022-11-24T04:39:24.377Z,87.44
2022-11-24T04:39:35.796Z,87.79
2022-11-24T04:40:32.387Z,87.82
2022-11-24T04:41:28.947Z,87.89
2022-11-24T04:42:25.508Z,87.78
2022-11-24T04:43:22.068Z,87.22
2022-11-24T04:44:18.758Z,87.53
2022-11-24T04:45:15.378Z,87.30
2022-11-24T04:46:12.040Z,87.53
2022-11-24T04:47:15.407Z,88.17
2022-11-24T04:48:11.938Z,88.06
2022-11-24T04:49:11.713Z,88.48
2022-11-24T04:50:09.018Z,88.36
2022-11-24T04:51:06.452Z,88.26
2022-11-24T04:52:03.102Z,88.09
2022-11-24T04:52:59.665Z,88.27
2022-11-24T04:53:56.231Z,88.38
2022-11-24T04:54:52.873Z,88.30
2022-11-24T04:55:49.680Z,88.08
2022-11-24T04:56:51.709Z,88.18
2022-11-24T04:57:48.311Z,88.23
2022-11-24T04:58:48.404Z,88.21
2022-11-24T04:59:44.992Z,88.04
2022-11-24T05:00:41.562Z,87.06
2022-11-24T05:01:38.216Z,86.38
2022-11-24T05:02:35.096Z,85.58
2022-11-24T05:03:31.665Z,85.74
2022-11-24T05:04:28.481Z,85.78
2022-11-24T05:05:25.129Z,86.06
2022-11-24T05:06:22.205Z,86.32
2022-11-24T05:07:19.558Z,86.74
2022-11-24T05:08:16.299Z,86.75
2022-11-24T05:09:17.532Z,87.18
2022-11-24T05:10:32.986Z,87.55
2022-11-24T05:11:29.634Z,88.14
2022-11-24T05:12:31.182Z,88.11
2022-11-24T05:13:27.827Z,88.25
2022-11-24T05:14:24.621Z,88.29
2022-11-24T05:15:21.349Z,87.91
2022-11-24T05:16:17.992Z,87.91
2022-11-24T05:17:15.071Z,88.31
2022-11-24T05:18:13.728Z,88.49
2022-11-24T05:19:10.378Z,88.76
2022-11-24T05:20:07.516Z,88.45
2022-11-24T05:21:04.960Z,88.14
2022-11-24T05:22:01.547Z,87.41
2022-11-24T05:23:05.107Z,86.47
2022-11-24T05:24:01.674Z,86.15
2022-11-24T05:24:58.297Z,86.24
2022-11-24T05:25:59.696Z,86.38
2022-11-24T05:26:56.305Z,86.48
2022-11-24T05:27:52.891Z,86.64
2022-11-24T05:28:49.586Z,87.28
2022-11-24T05:29:46.268Z,88.02
2022-11-24T05:30:43.391Z,88.66
2022-11-24T05:31:40.055Z,88.72
2022-11-24T05:32:36.711Z,88.53
2022-11-24T05:33:33.445Z,88.79
2022-11-24T05:34:33.597Z,89.33
2022-11-24T05:35:30.414Z,89.69
2022-11-24T05:36:45.366Z,89.42
2022-11-24T05:37:41.939Z,90.08
2022-11-24T05:38:38.468Z,90.21
2022-11-24T05:39:37.950Z,90.16
2022-11-24T05:40:34.532Z,90.71
2022-11-24T05:41:31.115Z,90.52
2022-11-24T05:42:47.035Z,90.41
2022-11-24T05:43:44.474Z,90.51
2022-11-24T05:44:41.281Z,90.13
2022-11-24T05:45:37.895Z,89.59
2022-11-24T05:46:34.534Z,88.70
2022-11-24T05:47:31.576Z,88.43
2022-11-24T05:48:28.640Z,87.96
2022-11-24T05:49:25.235Z,87.46
2022-11-24T05:50:22.890Z,87.45
2022-11-24T05:51:19.507Z,87.46
2022-11-24T05:52:16.715Z,87.37
2022-11-24T05:53:13.992Z,87.33
2022-11-24T05:54:10.606Z,87.74
2022-11-24T05:55:08.770Z,87.45
2022-11-24T05:56:05.752Z,87.92
2022-11-24T05:57:02.507Z,88.58
2022-11-24T05:58:06.847Z,89.02
2022-11-24T05:59:09.462Z,89.75
2022-11-24T06:00:08.577Z,89.70
2022-11-24T06:01:08.163Z,89.48
2022-11-24T06:02:04.962Z,89.10
2022-11-24T06:03:02.132Z,89.12
2022-11-24T06:03:58.864Z,89.01
2022-11-24T06:04:55.425Z,89.07
2022-11-24T06:05:52.086Z,89.08
2022-11-24T06:06:48.716Z,89.13
2022-11-24T06:07:45.594Z,88.98
2022-11-24T06:08:42.273Z,89.55
2022-11-24T06:09:40.805Z,89.44
2022-11-24T06:10:37.460Z,89.28
2022-11-24T06:11:34.156Z,88.71
2022-11-24T06:12:33.488Z,88.55
2022-11-24T06:13:30.152Z,88.78
2022-11-24T06:14:27.075Z,88.68
2022-11-24T06:15:23.806Z,88.13
2022-11-24T06:16:20.420Z,88.02
2022-11-24T06:17:17.032Z,88.06
2022-11-24T06:18:13.606Z,87.95
2022-11-24T06:19:11.447Z,87.70
2022-11-24T06:20:09.694Z,87.54
2022-11-24T06:21:11.108Z,87.40
2022-11-24T06:22:08.293Z,87.31
2022-11-24T06:23:04.900Z,87.75
2022-11-24T06:24:02.522Z,87.39
2022-11-24T06:24:59.156Z,87.69
2022-11-24T06:25:58.716Z,87.20
2022-11-24T06:26:55.347Z,87.25
2022-11-24T06:27:52.079Z,87.05
2022-11-24T06:28:48.722Z,87.13
2022-11-24T06:29:45.427Z,87.03
2022-11-24T06:30:42.078Z,87.23
2022-11-24T06:31:38.692Z,87.41
2022-11-24T06:32:35.453Z,87.10
2022-11-24T06:33:37.022Z,86.75
2022-11-24T06:34:33.949Z,86.85
2022-11-24T06:35:30.715Z,86.81
2022-11-24T06:36:27.880Z,86.58
2022-11-24T06:37:24.444Z,86.86
2022-11-24T06:38:24.295Z,86.87
2022-11-24T06:39:21.177Z,86.62
2022-11-24T06:40:17.854Z,86.40
2022-11-24T06:41:16.048Z,85.99
2022-11-24T06:42:12.846Z,85.75
2022-11-24T06:43:09.455Z,84.54
2022-11-24T06:44:06.102Z,84.86
2022-11-24T06:45:08.561Z,85.03
2022-11-24T06:46:06.137Z,85.17
2022-11-24T06:47:02.777Z,84.88
2022-11-24T06:47:59.388Z,84.41
2022-11-24T06:48:55.936Z,84.82
2022-11-24T06:49:52.540Z,85.25
2022-11-24T06:50:49.250Z,85.44
2022-11-24T06:51:45.785Z,85.66
2022-11-24T06:52:42.406Z,85.14
2022-11-24T06:53:40.554Z,83.48
2022-11-24T06:54:37.378Z,83.25
2022-11-24T06:55:34.179Z,82.78
2022-11-24T06:56:30.803Z,83.39
2022-11-24T06:57:29.471Z,84.09
2022-11-24T06:58:26.253Z,84.36
2022-11-24T06:59:22.946Z,84.25
2022-11-24T07:00:19.777Z,84.43
2022-11-24T07:01:22.258Z,83.98
2022-11-24T07:02:19.004Z,83.17
2022-11-24T07:03:16.715Z,82.81
2022-11-24T07:04:13.647Z,82.93
2022-11-24T07:05:10.246Z,82.91
2022-11-24T07:06:07.039Z,83.22
2022-11-24T07:07:03.645Z,83.50
2022-11-24T07:08:00.634Z,83.55
2022-11-24T07:08:57.293Z,83.65
2022-11-24T07:09:53.894Z,83.44
2022-11-24T07:10:50.648Z,83.63
2022-11-24T07:11:47.313Z,83.64
2022-11-24T07:12:44.041Z,83.36
2022-11-24T07:13:40.734Z,82.87
2022-11-24T07:14:37.654Z,82.40
2022-11-24T07:15:34.514Z,81.96
2022-11-24T07:16:31.960Z,81.75
2022-11-24T07:17:28.590Z,82.06
2022-11-24T07:18:25.172Z,82.51
2022-11-24T07:19:25.112Z,82.78
2022-11-24T07:20:21.954Z,82.69
2022-11-24T07:21:20.329Z,82.84
2022-11-24T07:22:16.970Z,82.16
2022-11-24T07:23:13.594Z,81.58
2022-11-24T07:24:11.389Z,81.60
2022-11-24T07:25:09.890Z,81.80
2022-11-24T07:26:08.190Z,82.39
2022-11-24T07:27:04.758Z,81.97
2022-11-24T07:28:01.473Z,82.16
2022-11-24T07:28:58.094Z,82.65
2022-11-24T07:29:54.642Z,82.50
2022-11-24T07:30:51.296Z,81.95
2022-11-24T07:31:48.006Z,82.48
2022-11-24T07:32:44.550Z,82.43
2022-11-24T07:33:41.647Z,82.60
2022-11-24T07:34:38.166Z,82.75
2022-11-24T07:35:34.773Z,82.50
2022-11-24T07:36:31.381Z,81.83
2022-11-24T07:37:31.255Z,81.90
2022-11-24T07:38:30.055Z,82.05
2022-11-24T07:39:26.644Z,82.15
2022-11-24T07:40:24.270Z,82.62
2022-11-24T07:41:21.008Z,83.35
2022-11-24T07:42:17.659Z,83.84
2022-11-24T07:43:19.849Z,84.20
2022-11-24T07:44:16.723Z,84.72
2022-11-24T07:45:13.365Z,84.21
2022-11-24T07:46:13.238Z,83.70
2022-11-24T07:47:09.908Z,84.02
2022-11-24T07:48:06.718Z,83.92
2022-11-24T07:49:03.523Z,84.17
2022-11-24T07:50:00.175Z,84.05
2022-11-24T07:51:00.555Z,83.66
2022-11-24T07:51:57.267Z,83.66
2022-11-24T07:52:53.911Z,84.27
2022-11-24T07:53:51.133Z,84.97
2022-11-24T07:54:47.760Z,85.81
2022-11-24T07:55:44.390Z,86.22
2022-11-24T07:56:41.344Z,86.34
2022-11-24T07:57:37.977Z,85.96
2022-11-24T07:58:37.180Z,86.03
2022-11-24T07:59:33.775Z,86.56
2022-11-24T08:00:30.375Z,86.48
2022-11-24T08:01:27.126Z,86.70
2022-11-24T08:02:24.280Z,86.19
2022-11-24T08:03:20.962Z,85.53
2022-11-24T08:04:17.791Z,85.40
2022-11-24T08:05:14.371Z,85.40
2022-11-24T08:06:35.881Z,85.82
2022-11-24T08:07:29.522Z,84.45
2022-11-24T08:08:26.801Z,84.83
2022-11-24T08:09:23.367Z,84.91
2022-11-24T08:10:19.987Z,85.50
2022-11-24T08:11:18.253Z,85.60
2022-11-24T08:12:16.989Z,85.80
2022-11-24T08:13:13.588Z,86.46
2022-11-24T08:14:10.156Z,86.27
2022-11-24T08:15:11.002Z,86.13
2022-11-24T08:16:10.957Z,85.84
2022-11-24T08:17:07.601Z,85.88
2022-11-24T08:18:04.587Z,85.97
2022-11-24T08:19:01.424Z,85.66
2022-11-24T08:19:57.975Z,85.25
2022-11-24T08:20:58.166Z,84.53
2022-11-24T08:21:54.775Z,84.21
2022-11-24T08:22:51.307Z,84.61
2022-11-24T08:23:47.903Z,84.85
2022-11-24T08:24:47.684Z,84.72
2022-11-24T08:25:44.263Z,83.88
2022-11-24T08:26:41.780Z,84.03
2022-11-24T08:27:40.124Z,83.59
2022-11-24T08:28:38.114Z,83.14
2022-11-24T08:29:34.889Z,83.37
2022-11-24T08:30:32.318Z,83.12
2022-11-24T08:31:36.206Z,82.78
2022-11-24T08:32:32.915Z,82.31
2022-11-24T08:33:29.612Z,82.79
2022-11-24T08:34:29.326Z,83.11
2022-11-24T08:35:25.893Z,83.12
2022-11-24T08:36:22.576Z,83.14
2022-11-24T08:37:19.174Z,82.49
2022-11-24T08:38:17.393Z,81.67
2022-11-24T08:39:14.033Z,81.75
2022-11-24T08:40:11.464Z,81.54
2022-11-24T08:41:13.945Z,82.22
2022-11-24T08:42:10.415Z,81.90
2022-11-24T08:43:07.073Z,81.41
2022-11-24T08:44:03.793Z,81.52
2022-11-24T08:45:17.473Z,81.21
2022-11-24T08:46:18.626Z,81.44
2022-11-24T08:47:15.287Z,81.05
2022-11-24T08:48:11.871Z,81.73
2022-11-24T08:49:08.891Z,81.96
2022-11-24T08:50:06.206Z,82.38
2022-11-24T08:51:08.551Z,81.37
2022-11-24T08:52:05.453Z,80.95
2022-11-24T08:53:02.072Z,81.10
2022-11-24T08:54:01.003Z,81.20
2022-11-24T08:54:57.600Z,80.59
2022-11-24T08:55:59.767Z,80.12
2022-11-24T08:56:56.355Z,79.84
2022-11-24T08:57:52.982Z,79.61
2022-11-24T08:58:49.739Z,78.18
2022-11-24T08:59:46.476Z,76.51
2022-11-24T09:00:43.469Z,77.11
2022-11-24T09:01:40.284Z,77.28
2022-11-24T09:02:36.974Z,77.11
2022-11-24T09:03:34.527Z,76.93
2022-11-24T09:04:31.212Z,76.89
2022-11-24T09:06:44.536Z,74.20
2022-11-24T09:07:41.246Z,73.45
2022-11-24T09:08:38.737Z,72.31
2022-11-24T09:09:35.321Z,73.11
2022-11-24T09:10:35.273Z,74.17
2022-11-24T09:11:33.765Z,74.26
2022-11-24T09:12:30.332Z,74.21
2022-11-24T09:13:27.046Z,74.52
2022-11-24T09:14:23.703Z,74.51
2022-11-24T09:15:20.515Z,74.57
2022-11-24T09:16:22.559Z,73.75
2022-11-24T09:17:19.259Z,74.18
2022-11-24T09:18:15.969Z,73.72
2022-11-24T09:19:12.643Z,73.43
2022-11-24T09:20:09.774Z,72.89
2022-11-24T09:21:18.815Z,73.36
2022-11-24T09:22:15.490Z,70.47
2022-11-24T09:23:12.075Z,71.53
2022-11-24T09:24:10.463Z,71.64
2022-11-24T09:25:07.652Z,72.95
2022-11-24T09:26:06.120Z,71.14
2022-11-24T09:27:02.653Z,71.07
2022-11-24T09:28:00.035Z,70.88
2022-11-24T09:28:58.183Z,69.90
2022-11-24T09:29:54.896Z,70.15
2022-11-24T09:30:51.569Z,69.94
2022-11-24T09:31:48.388Z,69.17
2022-11-24T09:32:45.086Z,69.37
2022-11-24T09:33:42.226Z,69.94
2022-11-24T09:34:39.053Z,69.15
2022-11-24T09:35:37.389Z,68.92
2022-11-24T09:36:34.398Z,68.23
2022-11-24T09:37:33.144Z,68.35
2022-11-24T09:38:29.842Z,67.98
2022-11-24T09:39:26.418Z,68.78
2022-11-24T09:40:23.156Z,67.90
2022-11-24T09:41:57.862Z,69.08
2022-11-24T09:43:06.329Z,69.29
2022-11-24T09:44:27.423Z,67.28
2022-11-24T09:46:04.324Z,68.13
2022-11-24T09:47:24.666Z,68.88
2022-11-24T09:48:33.512Z,68.41
2022-11-24T09:49:54.657Z,67.83
2022-11-24T09:50:52.735Z,66.04
2022-11-24T09:51:53.986Z,67.55
2022-11-24T09:53:05.789Z,66.56
2022-11-24T09:54:10.971Z,67.07
2022-11-24T09:55:32.206Z,67.70
2022-11-24T09:56:32.203Z,67.25
2022-11-24T09:57:35.866Z,65.79
2022-11-24T09:58:50.796Z,66.89
2022-11-24T09:59:47.700Z,66.34
2022-11-24T10:00:45.775Z,66.07
2022-11-24T10:01:44.039Z,65.43
2022-11-24T10:02:40.670Z,66.02
2022-11-24T10:03:50.276Z,66.05
2022-11-24T10:04:47.425Z,66.28
2022-11-24T10:05:45.543Z,66.18
2022-11-24T10:07:09.297Z,67.67
2022-11-24T10:08:32.497Z,67.71
2022-11-24T10:09:37.860Z,66.64
2022-11-24T10:10:59.743Z,68.30
2022-11-24T10:12:15.082Z,68.05
2022-11-24T10:13:26.774Z,67.87
2022-11-24T10:14:35.585Z,68.75
2022-11-24T10:15:48.034Z,67.26
2022-11-24T10:16:44.603Z,65.93
2022-11-24T10:17:49.944Z,65.95
2022-11-24T10:19:36.265Z,66.37
2022-11-24T10:20:44.804Z,67.09
2022-11-24T10:21:53.918Z,66.49
2022-11-24T10:23:09.158Z,67.00
2022-11-24T10:24:30.079Z,66.80
2022-11-24T10:25:49.737Z,68.45
2022-11-24T10:27:01.977Z,67.75
2022-11-24T10:28:03.205Z,68.14
2022-11-24T10:28:59.851Z,66.42
2022-11-24T10:29:57.147Z,67.75
2022-11-24T10:31:02.163Z,67.46
2022-11-24T10:31:58.871Z,69.06
2022-11-24T10:33:01.429Z,67.35
2022-11-24T10:34:01.588Z,69.31
2022-11-24T10:35:22.513Z,66.56
2022-11-24T10:36:35.904Z,66.15
2022-11-24T10:37:45.882Z,67.84
2022-11-24T10:38:50.476Z,67.56
2022-11-24T10:39:59.670Z,66.99
2022-11-24T10:41:11.070Z,66.98
2022-11-24T10:42:16.454Z,69.24
2022-11-24T10:43:13.094Z,68.90
2022-11-24T10:44:14.246Z,68.51
2022-11-24T10:45:15.062Z,68.05
2022-11-24T10:46:24.457Z,68.22
2022-11-24T10:47:22.965Z,68.86
2022-11-24T10:48:30.268Z,67.29
2022-11-24T10:49:33.278Z,68.06
2022-11-24T10:50:36.869Z,68.46
2022-11-24T10:51:51.836Z,68.08
2022-11-24T10:53:19.236Z,67.23
2022-11-24T10:54:21.984Z,67.26
2022-11-24T10:55:21.506Z,66.40
2022-11-24T10:56:18.283Z,67.01
2022-11-24T10:57:27.833Z,67.54
2022-11-24T10:58:34.277Z,67.48
2022-11-24T10:59:38.377Z,67.69
2022-11-24T11:00:36.043Z,68.23
2022-11-24T11:01:33.473Z,67.20
2022-11-24T11:02:40.143Z,67.04
2022-11-24T11:03:53.955Z,66.53
2022-11-24T11:04:50.542Z,66.67
2022-11-24T11:06:00.091Z,67.20
2022-11-24T11:07:21.774Z,65.90
2022-11-24T11:08:22.888Z,66.74
2022-11-24T11:09:21.780Z,66.89
2022-11-24T11:10:24.233Z,68.26
2022-11-24T11:11:23.788Z,68.17
2022-11-24T11:13:54.826Z,66.90
2022-11-24T11:14:55.068Z,67.66
2022-11-24T11:15:52.138Z,68.36
2022-11-24T11:16:54.142Z,68.95
2022-11-24T11:17:54.532Z,67.33
2022-11-24T11:18:51.828Z,67.19
2022-11-24T11:19:56.924Z,68.27
2022-11-24T11:20:58.925Z,68.16
2022-11-24T11:22:19.962Z,67.23
2022-11-24T11:23:26.208Z,67.52
2022-11-24T11:24:22.820Z,67.04
2022-11-24T11:25:28.299Z,67.97
2022-11-24T11:26:24.965Z,67.92
2022-11-24T11:27:25.076Z,68.11
2022-11-24T11:28:29.424Z,66.51
2022-11-24T11:31:20.594Z,66.05
2022-11-24T11:34:04.298Z,66.36
2022-11-24T11:35:02.843Z,66.72
2022-11-24T11:36:06.964Z,65.45
2022-11-24T11:37:04.766Z,66.61
2022-11-24T11:38:03.918Z,65.09
2022-11-24T11:39:03.051Z,66.04
2022-11-24T11:40:00.515Z,65.71
2022-11-24T11:40:57.686Z,66.43
2022-11-24T11:42:45.296Z,66.81
2022-11-24T11:43:41.051Z,65.76
2022-11-24T11:44:40.668Z,66.80
2022-11-24T11:45:41.676Z,68.12
2022-11-24T11:46:38.447Z,66.73
2022-11-24T11:47:44.682Z,67.07
2022-11-24T11:48:46.603Z,66.04
2022-11-24T11:49:44.677Z,66.88
2022-11-24T11:51:21.272Z,66.02
2022-11-24T11:52:13.584Z,66.14
2022-11-24T11:53:44.829Z,65.03
2022-11-24T11:54:50.099Z,64.97
2022-11-24T11:56:07.038Z,66.25
2022-11-24T11:57:03.616Z,66.04
2022-11-24T11:58:15.044Z,66.12
2022-11-24T11:59:36.451Z,65.49
2022-11-24T12:00:38.960Z,66.38
2022-11-24T12:01:38.178Z,66.25
2022-11-24T12:02:48.553Z,65.36
2022-11-24T12:04:17.347Z,65.29
2022-11-24T12:05:32.488Z,64.44
2022-11-24T12:06:47.653Z,64.71
2022-11-24T12:08:26.482Z,65.90
2022-11-24T12:09:29.158Z,66.84
2022-11-24T12:10:37.869Z,66.96
2022-11-24T12:11:58.621Z,66.37
2022-11-24T12:13:32.148Z,65.54
2022-11-24T12:14:39.489Z,64.94
2022-11-24T12:15:48.289Z,66.29
2022-11-24T12:17:18.801Z,64.78
2022-11-24T12:18:55.836Z,64.79
2022-11-24T12:20:07.879Z,65.70
2022-11-24T12:21:21.375Z,65.55
2022-11-24T12:22:36.369Z,63.30
2022-11-24T12:23:42.099Z,63.47
2022-11-24T12:24:44.467Z,63.49
2022-11-24T12:25:47.896Z,63.38
2022-11-24T12:26:47.303Z,63.57
2022-11-24T12:27:49.753Z,64.38
2022-11-24T12:28:46.230Z,64.70
2022-11-24T12:29:51.960Z,64.29
2022-11-24T12:31:01.786Z,63.79
2022-11-24T12:32:17.236Z,63.25
2022-11-24T12:34:00.931Z,61.91
2022-11-24T12:35:06.633Z,62.25
2022-11-24T12:36:07.110Z,62.11
2022-11-24T12:37:34.650Z,62.01
2022-11-24T12:39:05.381Z,62.51
2022-11-24T12:40:12.307Z,62.55
2022-11-24T12:41:43.962Z,62.68
2022-11-24T12:43:15.128Z,64.01
2022-11-24T12:44:28.004Z,63.90
2022-11-24T12:45:46.494Z,63.24
2022-11-24T12:47:18.500Z,64.24
2022-11-24T12:48:25.305Z,63.58
2022-11-24T12:49:41.640Z,64.49
2022-11-24T12:50:41.707Z,63.12
2022-11-24T12:51:42.239Z,63.65
2022-11-24T12:52:52.884Z,64.33
2022-11-24T12:53:53.397Z,63.68
2022-11-24T12:54:50.050Z,63.53
2022-11-24T12:55:47.211Z,64.36
2022-11-24T12:56:50.438Z,64.77
2022-11-24T12:57:50.152Z,65.27
2022-11-24T12:59:13.274Z,64.22
2022-11-24T13:00:22.766Z,64.99
2022-11-24T13:01:33.534Z,64.15
2022-11-24T13:02:44.273Z,65.10
2022-11-24T13:04:01.045Z,64.91